Terminal Aerodrome Forecast
Issued by NWS Jackson, MS

Home | Current Version | Previous Version | Text Only | Print | Product List | Glossary On
Versions: 1 2 3 4 5 6 7 8 9 10 11 12 13 14 15 16 17
922
FTUS44 KJAN 222341
TAFGLH
TAF
KGLH 222341Z 2300/2324 26004KT P6SM FEW090 SCT250
     FM230400 19003KT 3SM BR FEW090 FEW250
     FM230600 16004KT 2SM BR FEW025 FEW250
     FM230900 17004KT 1/4SM FG FEW003 SCT250
     FM231100 16004KT 1/4SM FG BKN003 BKN250
     FM231430 17006KT 3SM BR FEW008 SCT250
     FM231600 18011KT P6SM FEW090 SCT250=

USA.gov is the U.S. government's official web portal to all federal, state and local government web resources and services.